Time;durP1;ratioP1;P1;durP2;ratioP2;P2;SDS_P1;SDS_P2;PMS_P1;PMS_P2;Temp;Humidity;BMP_temperature;BMP_pressure;BME280_temperature;BME280_humidity;BME280_pressure;Samples;Min_cycle;Max_cycle;Signal;HPM_P1;HPM_P2
2024/04/05 00:00:26;;;;;;;4.00;2.10;;;;;;;10.89;65.80;98874.77;105787;1267;97949;-81
2024/04/05 00:03:13;;;;;;;3.10;2.00;;;;;;;10.88;65.71;98875.72;105349;1261;110967;-83
2024/04/05 00:52:17;;;;;;;2.40;1.60;;;;;;;10.72;67.09;98868.05;103124;1284;636103;-81
2024/04/05 00:54:46;;;;;;;2.50;1.60;;;;;;;10.69;67.41;98869.86;104488;1275;96234;-80
2024/04/05 00:57:16;;;;;;;3.80;1.90;;;;;;;10.67;67.65;98871.42;104415;1276;95278;-80
2024/04/05 01:51:44;;;;;;;3.50;2.10;;;;;;;10.48;68.65;98841.84;102749;1292;636553;-83
2024/04/05 01:54:11;;;;;;;3.50;2.20;;;;;;;10.45;68.86;98841.02;105398;1260;95337;-80
2024/04/05 01:56:37;;;;;;;4.70;2.40;;;;;;;10.44;68.83;98842.70;105572;1261;95367;-80
2024/04/05 01:59:05;;;;;;;3.40;2.00;;;;;;;10.43;68.78;98846.28;105582;1254;95953;-81
2024/04/05 02:01:34;;;;;;;3.60;2.00;;;;;;;10.42;69.14;98851.12;105315;1254;96206;-81
2024/04/05 02:04:37;;;;;;;3.10;1.90;;;;;;;10.45;68.98;98852.34;102451;1292;637199;-81
2024/04/05 02:07:04;;;;;;;3.50;2.30;;;;;;;10.41;69.22;98853.88;104745;1285;95350;-81
2024/04/05 02:09:31;;;;;;;3.50;2.00;;;;;;;10.40;69.08;98859.67;105226;1266;96237;-81
2024/04/05 02:12:01;;;;;;;3.50;1.80;;;;;;;10.39;69.20;98865.20;105586;1254;95313;-80
2024/04/05 02:14:29;;;;;;;5.20;1.60;;;;;;;10.37;69.26;98863.54;105060;1256;97572;-81
2024/04/05 02:16:58;;;;;;;4.70;2.10;;;;;;;10.38;69.35;98862.09;105194;1253;283654;-81
2024/04/05 02:19:25;;;;;;;2.70;1.70;;;;;;;10.38;69.32;98860.28;105435;1273;95398;-81
2024/04/05 02:21:52;;;;;;;2.10;1.50;;;;;;;10.39;69.44;98865.20;105230;1261;95264;-81
2024/04/05 02:24:19;;;;;;;3.40;1.70;;;;;;;10.40;69.41;98865.33;105502;1253;95391;-81
2024/04/05 02:26:46;;;;;;;2.70;1.60;;;;;;;10.40;69.38;98867.26;105337;1253;95364;-82
2024/04/05 02:29:13;;;;;;;4.00;1.80;;;;;;;10.40;69.47;98872.20;105345;1254;96730;-81
2024/04/05 02:31:40;;;;;;;2.30;1.60;;;;;;;10.41;69.48;98878.34;105486;1271;96785;-80
2024/04/05 02:34:07;;;;;;;3.10;1.80;;;;;;;10.41;69.63;98876.75;105592;1257;96657;-82
2024/04/05 02:36:34;;;;;;;3.20;2.00;;;;;;;10.42;69.50;98876.66;105716;1260;96679;-81
2024/04/05 02:39:03;;;;;;;4.60;1.90;;;;;;;10.41;69.57;98883.23;105821;1258;107565;-80
2024/04/05 02:52:19;;;;;;;3.50;2.00;;;;;;;10.51;69.70;98898.70;102549;1295;636662;-81
2024/04/05 02:54:49;;;;;;;2.30;1.60;;;;;;;10.51;69.77;98908.09;104702;1267;95277;-79
2024/04/05 02:57:17;;;;;;;4.10;1.60;;;;;;;10.52;69.80;98912.98;104954;1260;96142;-80
2024/04/05 02:59:45;;;;;;;4.20;1.80;;;;;;;10.51;69.72;98904.60;105255;1263;109047;-82
2024/04/05 03:02:14;;;;;;;5.10;1.90;;;;;;;10.47;69.86;98893.48;105101;1265;95982;-81
2024/04/05 03:04:42;;;;;;;3.50;1.90;;;;;;;10.46;69.90;98888.27;105159;1265;107532;-81
2024/04/05 03:07:11;;;;;;;3.20;1.80;;;;;;;10.46;70.08;98889.35;104955;1257;175524;-81
2024/04/05 03:09:42;;;;;;;3.50;2.00;;;;;;;10.43;70.01;98887.40;105382;1254;95259;-80
2024/04/05 03:12:10;;;;;;;2.70;1.80;;;;;;;10.41;70.14;98889.28;105271;1258;108529;-81
2024/04/05 03:14:38;;;;;;;4.00;2.00;;;;;;;10.41;70.24;98891.99;105193;1263;96260;-80
2024/04/05 03:17:08;;;;;;;2.90;1.80;;;;;;;10.40;70.17;98894.39;105048;1254;109606;-81
2024/04/05 03:19:39;;;;;;;2.80;2.00;;;;;;;10.39;70.18;98891.59;108244;1254;94323;-80
2024/04/05 03:22:08;;;;;;;2.60;1.70;;;;;;;10.40;70.19;98896.29;108824;1250;94262;-81
2024/04/05 03:24:46;;;;;;;3.10;1.70;;;;;;;10.42;70.25;98896.55;108583;1250;111051;-82
2024/04/05 03:27:16;;;;;;;2.00;1.40;;;;;;;10.44;70.30;98898.70;108724;1255;96001;-81
2024/04/05 03:29:44;;;;;;;2.80;1.50;;;;;;;10.46;70.41;98892.54;108700;1251;108839;-81
2024/04/05 03:32:14;;;;;;;2.40;1.40;;;;;;;10.48;70.26;98901.76;108551;1254;95152;-81
2024/04/05 03:34:46;;;;;;;2.30;1.60;;;;;;;10.50;70.31;98905.71;108638;1251;94331;-81
2024/04/05 03:37:15;;;;;;;2.50;1.60;;;;;;;10.52;70.58;98909.10;108622;1257;111059;-81
2024/04/05 03:39:43;;;;;;;2.70;1.70;;;;;;;10.55;70.40;98909.55;108593;1251;96071;-81
2024/04/05 03:42:12;;;;;;;3.40;1.80;;;;;;;10.56;70.58;98913.20;108586;1251;107508;-81
2024/04/05 03:44:43;;;;;;;2.90;1.70;;;;;;;10.58;70.68;98920.69;108751;1251;94576;-82
2024/04/05 03:50:57;;;;;;;3.40;2.10;;;;;;;10.66;70.48;98930.06;103337;1289;639859;-82
2024/04/05 03:53:27;;;;;;;7.30;3.60;;;;;;;10.65;70.50;98938.07;104978;1276;95380;-80
2024/04/05 03:55:58;;;;;;;4.40;2.40;;;;;;;10.65;70.56;98940.55;105138;1267;95283;-79
2024/04/05 03:58:24;;;;;;;3.70;2.50;;;;;;;10.67;70.68;98941.69;105129;1267;109946;-81
2024/04/05 04:01:39;;;;;;;3.60;2.40;;;;;;;10.66;70.67;98942.77;105688;1267;95355;-78
2024/04/05 04:13:16;;;;;;;;;;;;;;;;;;;;;
2024/04/05 04:25:49;;;;;;;;;;;;;;;;;;;;;
2024/04/05 04:32:57;;;;;;;2.60;1.50;;;;;;;10.79;70.95;98960.13;105256;1257;96688;-79
2024/04/05 04:36:10;;;;;;;2.90;1.40;;;;;;;10.81;70.94;98960.85;105530;1254;109110;-77
2024/04/05 04:39:18;;;;;;;;;;;;;;;;;;;;;
2024/04/05 04:43:26;;;;;;;;;;;;;;;;;;;;;
2024/04/05 04:47:08;;;;;;;1.90;1.20;;;;;;;10.81;71.12;98976.98;105037;1264;96793;-81
2024/04/05 04:54:52;;;;;;;;;;;;;;;;;;;;;
2024/04/05 05:02:23;;;;;;;;;;;;;;;10.91;71.49;99000.52;105514;1254;108226;-80
2024/04/05 05:06:05;;;;;;;2.20;1.30;;;;;;;10.94;71.32;99004.56;105466;1268;96617;-77
2024/04/05 05:10:09;;;;;;;;;;;;;;;;;;;;;
2024/04/05 05:14:32;;;;;;;2.30;1.30;;;;;;;11.02;71.54;99014.10;104666;1270;110836;-78
2024/04/05 05:18:04;;;;;;;1.90;1.20;;;;;;;11.07;71.53;99019.55;104911;1281;97971;-78
2024/04/05 05:20:58;;;;;;;1.60;1.10;;;;;;;11.11;71.66;99019.93;104196;1273;107544;-75
2024/04/05 05:23:24;;;;;;;2.10;1.10;;;;;;;11.14;71.65;99025.96;104496;1276;96736;-76
2024/04/05 05:25:51;;;;;;;2.70;1.40;;;;;;;11.16;71.61;99030.80;105065;1260;96732;-77
2024/04/05 05:28:18;;;;;;;2.10;1.20;;;;;;;11.18;71.61;99032.77;105000;1260;96716;-75
2024/04/05 05:30:44;;;;;;;3.10;1.40;;;;;;;11.20;71.62;99036.53;104791;1264;96686;-76
2024/04/05 05:33:11;;;;;;;3.50;1.40;;;;;;;11.23;71.70;99038.62;105139;1263;97912;-73
2024/04/05 05:35:38;;;;;;;3.30;1.50;;;;;;;11.24;71.71;99042.57;105023;1264;96697;-76
2024/04/05 05:38:04;;;;;;;2.00;1.30;;;;;;;11.27;71.67;99050.56;105212;1272;97536;-75
2024/04/05 05:40:31;;;;;;;2.60;1.50;;;;;;;11.29;71.76;99052.33;105168;1264;96689;-73
2024/04/05 05:42:57;;;;;;;3.30;1.40;;;;;;;11.30;71.76;99054.89;104855;1277;96634;-73
2024/04/05 05:45:24;;;;;;;1.80;1.10;;;;;;;11.34;71.77;99060.35;105043;1257;97583;-75
2024/04/05 05:47:55;;;;;;;2.90;1.40;;;;;;;11.36;71.81;99065.17;105208;1268;109426;-75
2024/04/05 05:50:23;;;;;;;2.30;1.30;;;;;;;11.37;71.74;99069.69;105436;1255;96639;-74
2024/04/05 05:52:50;;;;;;;1.60;1.10;;;;;;;11.39;71.68;99069.18;105257;1268;107614;-77
2024/04/05 05:55:17;;;;;;;3.00;1.70;;;;;;;11.41;71.70;99069.38;105273;1257;97960;-76
2024/04/05 05:57:45;;;;;;;2.00;1.40;;;;;;;11.42;71.77;99073.03;105534;1257;96613;-74
2024/04/05 06:00:13;;;;;;;4.30;2.20;;;;;;;11.43;71.69;99072.61;105389;1257;96642;-74
2024/04/05 06:02:40;;;;;;;3.50;2.10;;;;;;;11.45;71.74;99074.95;105627;1255;96613;-75
2024/04/05 06:05:10;;;;;;;4.10;2.10;;;;;;;11.47;71.74;99075.85;105306;1264;107700;-74
2024/04/05 06:07:37;;;;;;;5.00;2.20;;;;;;;11.48;71.80;99078.77;105111;1257;96642;-73
2024/04/05 06:10:05;;;;;;;6.60;3.00;;;;;;;11.51;71.76;99084.45;105148;1254;97427;-73
2024/04/05 06:12:38;;;;;;;5.80;2.80;;;;;;;11.53;71.84;99081.59;105166;1258;97819;-75
2024/04/05 06:15:05;;;;;;;6.10;2.90;;;;;;;11.57;71.81;99085.79;105241;1262;96616;-75
2024/04/05 06:17:35;;;;;;;5.30;2.40;;;;;;;11.60;71.71;99088.36;105215;1267;96661;-70
2024/04/05 06:20:06;;;;;;;3.80;2.10;;;;;;;11.64;71.76;99091.08;105538;1255;96636;-71
2024/04/05 06:22:34;;;;;;;3.70;1.90;;;;;;;11.67;71.73;99094.91;105367;1257;96674;-72
2024/04/05 06:25:01;;;;;;;4.40;2.40;;;;;;;11.71;71.82;99098.89;105369;1260;108334;-72
2024/04/05 06:27:28;;;;;;;4.10;2.10;;;;;;;11.77;71.81;99096.88;105380;1257;96709;-73
2024/04/05 06:29:56;;;;;;;3.80;2.70;;;;;;;11.83;71.73;99106.48;105521;1256;97344;-70
2024/04/05 06:32:23;;;;;;;4.10;2.30;;;;;;;11.87;71.71;99103.30;105266;1260;97958;-73
2024/04/05 06:34:50;;;;;;;3.20;1.80;;;;;;;11.94;71.79;99111.17;105442;1260;96598;-72
2024/04/05 06:37:16;;;;;;;5.90;1.90;;;;;;;12.04;71.76;99115.02;105603;1258;97967;-74
2024/04/05 06:39:43;;;;;;;3.50;2.00;;;;;;;12.14;71.65;99119.27;105128;1266;96623;-73
2024/04/05 06:42:10;;;;;;;2.80;1.90;;;;;;;12.19;71.56;99117.30;105572;1253;96613;-72
2024/04/05 06:44:40;;;;;;;4.10;1.80;;;;;;;12.24;71.59;99119.18;105523;1254;96980;-71
2024/04/05 06:47:08;;;;;;;3.30;2.00;;;;;;;12.28;71.58;99126.73;105620;1257;97050;-71
2024/04/05 06:49:37;;;;;;;2.50;1.70;;;;;;;12.32;71.50;99126.73;105218;1258;109804;-71
2024/04/05 06:52:06;;;;;;;2.80;1.60;;;;;;;12.40;71.46;99127.91;105188;1253;96594;-73
2024/04/05 06:54:33;;;;;;;4.30;2.10;;;;;;;12.47;71.31;99126.66;105411;1254;107128;-71
2024/04/05 06:57:00;;;;;;;3.00;2.20;;;;;;;12.55;71.34;99128.82;105357;1260;98634;-72
2024/04/05 06:59:28;;;;;;;3.40;2.00;;;;;;;12.61;71.14;99131.53;105552;1254;96546;-71
2024/04/05 07:01:55;;;;;;;3.30;2.40;;;;;;;12.67;71.11;99134.70;105341;1253;109922;-70
2024/04/05 07:04:23;;;;;;;3.70;2.00;;;;;;;12.71;70.90;99140.59;105052;1258;97174;-72
2024/04/05 07:06:50;;;;;;;4.20;1.80;;;;;;;12.74;70.93;99142.48;105535;1253;96700;-72
2024/04/05 07:09:20;;;;;;;3.60;2.10;;;;;;;12.77;70.81;99149.86;105421;1256;97571;-71
2024/04/05 07:11:47;;;;;;;3.50;1.60;;;;;;;12.85;70.87;99154.95;105261;1259;96537;-72
2024/04/05 07:14:16;;;;;;;2.70;1.80;;;;;;;12.89;70.63;99157.13;105501;1257;96733;-72
2024/04/05 07:16:43;;;;;;;3.30;1.60;;;;;;;12.92;70.56;99165.04;105459;1258;96610;-71
2024/04/05 07:19:10;;;;;;;4.50;1.90;;;;;;;12.91;70.49;99166.15;105309;1260;96647;-74
2024/04/05 07:21:37;;;;;;;3.40;1.90;;;;;;;12.92;70.42;99166.84;105590;1254;97433;-72
2024/04/05 07:24:05;;;;;;;4.00;1.70;;;;;;;12.96;70.34;99170.42;105317;1257;96639;-73
2024/04/05 07:26:33;;;;;;;3.10;2.00;;;;;;;13.00;70.29;99174.40;105342;1257;109349;-71
2024/04/05 07:29:00;;;;;;;3.50;2.20;;;;;;;13.01;70.28;99177.49;105257;1257;96718;-74
2024/04/05 07:31:27;;;;;;;2.40;1.60;;;;;;;13.05;70.09;99185.74;105435;1267;107696;-71
2024/04/05 07:33:53;;;;;;;3.90;1.40;;;;;;;13.05;70.12;99180.91;105462;1254;96691;-70
2024/04/05 07:36:20;;;;;;;2.40;1.80;;;;;;;13.09;70.16;99182.89;105239;1259;96640;-72
2024/04/05 07:38:49;;;;;;;4.90;1.50;;;;;;;13.13;70.11;99185.96;105442;1253;96632;-75
2024/04/05 07:41:17;;;;;;;4.30;1.50;;;;;;;13.20;70.10;99188.44;105448;1257;107143;-74
2024/04/05 07:43:43;;;;;;;3.50;1.60;;;;;;;13.25;70.05;99187.46;105570;1254;97468;-72
2024/04/05 07:46:10;;;;;;;2.60;1.50;;;;;;;13.32;70.04;99186.73;105085;1261;96630;-72
2024/04/05 07:48:36;;;;;;;3.80;1.80;;;;;;;13.34;69.78;99188.16;105287;1256;96583;-71
2024/04/05 07:51:04;;;;;;;2.80;1.60;;;;;;;13.38;69.68;99191.59;105318;1256;96697;-72
2024/04/05 07:53:30;;;;;;;3.60;1.90;;;;;;;13.40;69.45;99191.27;104934;1259;96649;-72
2024/04/05 07:56:00;;;;;;;2.00;1.30;;;;;;;13.38;69.52;99191.07;105377;1271;98054;-72
2024/04/05 07:58:26;;;;;;;2.80;1.60;;;;;;;13.37;69.30;99195.24;105245;1257;109830;-72
2024/04/05 08:00:52;;;;;;;2.60;1.50;;;;;;;13.35;69.36;99193.80;105060;1255;97035;-71
2024/04/05 08:03:19;;;;;;;2.70;1.60;;;;;;;13.34;69.28;99196.20;105350;1257;96620;-72
2024/04/05 08:05:45;;;;;;;2.50;1.60;;;;;;;13.36;69.33;99196.09;105147;1257;96672;-71
2024/04/05 08:08:12;;;;;;;3.20;1.60;;;;;;;13.42;69.00;99203.77;105292;1260;109938;-71
2024/04/05 08:10:39;;;;;;;2.80;1.50;;;;;;;13.46;68.77;99203.64;105078;1260;97955;-75
2024/04/05 08:13:05;;;;;;;3.40;1.60;;;;;;;13.54;69.04;99199.36;105302;1265;97524;-70
2024/04/05 08:15:33;;;;;;;4.30;1.70;;;;;;;13.61;68.55;99200.64;105273;1257;96729;-72
2024/04/05 08:18:00;;;;;;;2.60;1.50;;;;;;;13.62;68.63;99202.67;105325;1257;96531;-72
2024/04/05 08:20:26;;;;;;;2.50;1.30;;;;;;;13.61;68.46;99201.30;105286;1254;97062;-70
2024/04/05 08:22:53;;;;;;;3.50;1.30;;;;;;;13.60;68.22;99202.67;105300;1259;107748;-70
2024/04/05 08:25:19;;;;;;;2.70;1.40;;;;;;;13.57;67.95;99200.43;105267;1257;99343;-74
2024/04/05 08:27:47;;;;;;;3.20;1.80;;;;;;;13.54;68.07;99205.23;105275;1256;97929;-72
2024/04/05 08:30:15;;;;;;;2.60;1.70;;;;;;;13.59;68.13;99205.96;105498;1260;98070;-75
2024/04/05 08:32:42;;;;;;;3.00;1.30;;;;;;;13.62;68.01;99202.70;105330;1269;97986;-72
2024/04/05 08:35:09;;;;;;;2.70;1.50;;;;;;;13.68;68.07;99207.47;105342;1257;98512;-72
2024/04/05 08:37:37;;;;;;;3.00;1.70;;;;;;;13.76;68.05;99208.77;104934;1258;98365;-74
2024/04/05 08:40:05;;;;;;;4.40;1.90;;;;;;;13.84;67.69;99213.12;105506;1256;97999;-76
2024/04/05 08:42:33;;;;;;;3.50;1.40;;;;;;;13.88;67.53;99215.70;105175;1257;97984;-73
2024/04/05 08:45:00;;;;;;;3.20;1.50;;;;;;;13.87;67.20;99219.88;105327;1259;98039;-72
2024/04/05 08:47:28;;;;;;;3.90;1.60;;;;;;;13.84;67.39;99215.98;105468;1259;107118;-71
2024/04/05 08:49:56;;;;;;;5.20;2.60;;;;;;;13.85;67.38;99223.74;105457;1257;97974;-71
2024/04/05 08:52:23;;;;;;;7.40;2.80;;;;;;;13.85;67.20;99216.23;105358;1256;99299;-73
2024/04/05 08:54:50;;;;;;;4.80;2.40;;;;;;;13.91;67.29;99215.60;105284;1254;97958;-70
2024/04/05 08:57:18;;;;;;;3.00;1.50;;;;;;;13.97;67.24;99220.73;105036;1259;98038;-71
2024/04/05 08:59:51;;;;;;;4.50;1.70;;;;;;;14.05;67.32;99217.83;105159;1267;99181;-74
2024/04/05 09:02:19;;;;;;;5.00;2.10;;;;;;;14.10;67.10;99217.17;105180;1258;98055;-73
2024/04/05 09:04:45;;;;;;;7.80;4.70;;;;;;;14.14;67.08;99220.05;105271;1259;98056;-72
2024/04/05 09:07:12;;;;;;;3.90;2.20;;;;;;;14.16;66.75;99223.49;105007;1257;99727;-74
2024/04/05 09:09:42;;;;;;;4.00;2.20;;;;;;;14.18;66.95;99225.68;105450;1259;97954;-72
2024/04/05 09:12:25;;;;;;;6.70;2.90;;;;;;;14.22;66.70;99225.51;105096;1268;106909;-71
2024/04/05 09:14:59;;;;;;;4.20;2.60;;;;;;;14.25;66.67;99223.19;105135;1254;98966;-72
2024/04/05 09:17:25;;;;;;;4.90;2.10;;;;;;;14.32;66.65;99223.70;105183;1255;97918;-71
2024/04/05 09:20:09;;;;;;;2.80;1.60;;;;;;;14.40;66.75;99222.48;105246;1253;97974;-74
2024/04/05 09:22:35;;;;;;;2.90;1.90;;;;;;;14.51;66.68;99222.46;105436;1256;98213;-71
2024/04/05 09:25:03;;;;;;;1.90;1.20;;;;;;;14.58;66.80;99219.89;105279;1259;98003;-70
2024/04/05 09:27:30;;;;;;;2.10;1.20;;;;;;;14.66;66.49;99222.39;105254;1256;99259;-71
2024/04/05 09:30:04;;;;;;;3.60;1.70;;;;;;;14.72;66.34;99223.20;105511;1254;98444;-72
2024/04/05 09:32:31;;;;;;;2.10;1.10;;;;;;;14.75;66.30;99228.45;105254;1255;112996;-71
2024/04/05 09:34:57;;;;;;;4.10;1.30;;;;;;;14.77;66.18;99228.27;105437;1256;98021;-71
2024/04/05 09:37:27;;;;;;;2.70;1.20;;;;;;;14.78;66.14;99229.09;104974;1256;98052;-71
2024/04/05 09:39:54;;;;;;;4.50;2.00;;;;;;;14.77;65.92;99234.30;105246;1259;97992;-71
2024/04/05 09:42:22;;;;;;;3.30;1.60;;;;;;;14.74;65.87;99235.33;105423;1256;98076;-70
2024/04/05 09:44:55;;;;;;;2.90;1.30;;;;;;;14.70;65.76;99237.27;105577;1254;111228;-72
2024/04/05 09:47:29;;;;;;;3.30;1.40;;;;;;;14.72;65.59;99241.18;105158;1258;98049;-71
2024/04/05 09:49:55;;;;;;;3.60;1.20;;;;;;;14.74;65.38;99243.17;105282;1256;107634;-71
2024/04/05 09:52:30;;;;;;;4.20;1.60;;;;;;;14.82;65.41;99241.96;105274;1257;97993;-71
2024/04/05 09:55:00;;;;;;;2.80;1.60;;;;;;;14.89;65.10;99250.05;105009;1255;98066;-75
2024/04/05 09:57:29;;;;;;;2.90;1.60;;;;;;;14.93;64.98;99255.13;105021;1259;111203;-71
2024/04/05 09:59:57;;;;;;;4.30;1.60;;;;;;;14.93;64.63;99254.38;105184;1261;97972;-71
2024/04/05 10:03:35;;;;;;;2.70;1.40;;;;;;;15.03;64.92;99249.79;101969;1296;635852;-73
2024/04/05 10:06:16;;;;;;;1.80;1.20;;;;;;;15.13;64.99;99253.16;104462;1270;95361;-72
2024/04/05 10:08:43;;;;;;;3.30;1.70;;;;;;;15.21;64.54;99251.92;104314;1281;95360;-70
2024/04/05 10:11:13;;;;;;;2.50;1.40;;;;;;;15.25;64.42;99248.21;105001;1257;108213;-71
2024/04/05 10:13:41;;;;;;;2.20;1.30;;;;;;;15.30;64.36;99245.74;105283;1259;95255;-74
2024/04/05 10:16:09;;;;;;;3.70;1.30;;;;;;;15.40;64.24;99245.73;105144;1254;165668;-72
2024/04/05 10:18:39;;;;;;;3.90;1.60;;;;;;;15.47;63.83;99248.55;105233;1260;95267;-71
2024/04/05 10:21:08;;;;;;;3.30;1.50;;;;;;;15.51;63.20;99250.73;105521;1253;96880;-70
2024/04/05 10:23:37;;;;;;;2.60;1.40;;;;;;;15.57;63.49;99246.21;105224;1259;109206;-71
2024/04/05 10:26:24;;;;;;;2.50;1.70;;;;;;;15.67;63.44;99242.45;105428;1257;95455;-71
2024/04/05 10:29:05;;;;;;;3.00;1.30;;;;;;;15.76;63.38;99245.20;105257;1255;107659;-71
2024/04/05 10:31:34;;;;;;;4.80;2.20;;;;;;;15.81;62.85;99246.95;105273;1255;97549;-74
2024/04/05 10:34:03;;;;;;;6.00;2.60;;;;;;;15.81;62.51;99245.16;105306;1257;98275;-71
2024/04/05 10:36:31;;;;;;;3.40;1.70;;;;;;;15.79;62.65;99244.04;105457;1257;110481;-71
2024/04/05 10:39:03;;;;;;;3.00;1.70;;;;;;;15.78;61.92;99243.76;105345;1254;96615;-73
2024/04/05 10:41:32;;;;;;;;;;;;;;;15.71;61.66;99248.13;105649;1257;107382;-72
2024/04/05 10:44:04;;;;;;;3.00;1.50;;;;;;;15.72;61.42;99252.20;105475;1267;96630;-72
2024/04/05 10:46:31;;;;;;;2.80;1.30;;;;;;;15.70;61.08;99255.23;105284;1254;96642;-73
2024/04/05 10:48:59;;;;;;;3.60;1.70;;;;;;;15.64;61.00;99253.80;105178;1260;109422;-72
2024/04/05 10:51:27;;;;;;;1.70;1.20;;;;;;;15.67;61.14;99255.67;105385;1256;96614;-73
2024/04/05 10:53:54;;;;;;;3.50;1.40;;;;;;;15.72;61.06;99255.38;105309;1256;107328;-74
2024/04/05 10:56:39;;;;;;;2.50;1.20;;;;;;;15.75;60.76;99258.49;105406;1257;96691;-73
2024/04/05 10:59:18;;;;;;;4.80;1.60;;;;;;;15.76;60.77;99249.43;105150;1254;96694;-75
2024/04/05 11:15:46;;;;;;;3.10;1.30;;;;;;;16.25;60.92;99241.30;106325;1253;94802;-86
2024/04/05 12:00:13;;;;;;;2.30;1.40;;;;;;;16.76;58.76;99226.44;103669;1269;98079;-82
2024/04/05 12:02:58;;;;;;;2.60;1.30;;;;;;;16.81;58.46;99225.41;104489;1270;109819;-81
2024/04/05 12:05:29;;;;;;;3.20;1.40;;;;;;;16.86;58.50;99219.58;105218;1276;97925;-81
2024/04/05 12:08:24;;;;;;;4.40;1.70;;;;;;;16.91;58.42;99223.39;105800;1272;107656;-85
2024/04/05 12:15:40;;;;;;;3.50;1.70;;;;;;;16.94;58.25;99220.66;103624;1275;96742;-80
2024/04/05 14:31:16;;;;;;;3.80;1.40;;;;;;;17.29;53.33;99200.02;106778;1263;96758;-85
2024/04/05 15:03:44;;;;;;;2.40;1.60;;;;;;;17.00;52.43;99199.86;110281;1235;106108;-78
2024/04/05 15:06:15;;;;;;;4.50;1.60;;;;;;;16.97;52.51;99198.15;108392;1239;96596;-74
2024/04/05 15:08:42;;;;;;;3.10;1.30;;;;;;;16.94;52.49;99196.85;108357;1235;97649;-74
2024/04/05 15:11:11;;;;;;;1.70;1.10;;;;;;;16.89;52.46;99193.14;108443;1234;109973;-74
2024/04/05 15:13:39;;;;;;;4.20;1.50;;;;;;;16.87;52.29;99190.02;108341;1234;96613;-74
2024/04/05 15:16:19;;;;;;;2.20;1.40;;;;;;;16.84;52.58;99189.01;108682;1234;97819;-80
2024/04/05 15:18:50;;;;;;;2.50;1.30;;;;;;;16.81;52.61;99188.53;108768;1243;96933;-79
2024/04/05 15:21:24;;;;;;;3.30;1.60;;;;;;;16.78;52.57;99179.67;108574;1234;97722;-80
2024/04/05 15:24:17;;;;;;;3.30;1.40;;;;;;;16.75;52.49;99176.10;108427;1238;109595;-81
2024/04/05 15:38:48;;;;;;;3.90;1.70;;;;;;;17.09;52.35;99167.25;106217;1260;648313;-82
2024/04/05 15:53:26;;;;;;;5.00;2.30;;;;;;;17.26;52.46;99158.44;102809;1287;651179;-80
2024/04/05 15:56:53;;;;;;;;;;;;;;;;;;;;;
2024/04/05 15:59:37;;;;;;;4.00;1.80;;;;;;;16.97;52.79;99148.90;105236;1257;96288;-82
2024/04/05 16:02:48;;;;;;;3.20;1.80;;;;;;;16.88;52.77;99149.80;105578;1260;108837;-80
2024/04/05 16:06:01;;;;;;;13.30;5.30;;;;;;;16.83;52.78;99148.80;105102;1260;97012;-80
2024/04/05 16:09:26;;;;;;;4.00;2.40;;;;;;;16.76;52.65;99152.28;105079;1262;107624;-81
